sensor_id;sensor_type;location;lat;lon;timestamp;P1;durP1;ratioP1;P2;durP2;ratioP2
77146;SDS011;66121;52.584;9.694;2022-12-29T00:01:47;3.33;;;2.23;;
77146;SDS011;66121;52.584;9.694;2022-12-29T00:04:13;3.33;;;2.20;;
77146;SDS011;66121;52.584;9.694;2022-12-29T00:06:39;8.23;;;2.83;;
77146;SDS011;66121;52.584;9.694;2022-12-29T00:09:05;5.63;;;2.08;;
77146;SDS011;66121;52.584;9.694;2022-12-29T00:11:30;4.37;;;2.50;;
77146;SDS011;66121;52.584;9.694;2022-12-29T00:13:55;3.90;;;2.53;;
77146;SDS011;66121;52.584;9.694;2022-12-29T00:16:43;5.47;;;2.22;;
77146;SDS011;66121;52.584;9.694;2022-12-29T00:19:09;4.72;;;2.60;;
77146;SDS011;66121;52.584;9.694;2022-12-29T00:21:56;3.38;;;2.38;;
77146;SDS011;66121;52.584;9.694;2022-12-29T00:24:40;3.70;;;2.13;;
77146;SDS011;66121;52.584;9.694;2022-12-29T00:27:32;3.85;;;2.15;;
77146;SDS011;66121;52.584;9.694;2022-12-29T00:30:20;3.33;;;2.10;;
77146;SDS011;66121;52.584;9.694;2022-12-29T00:33:10;3.63;;;2.28;;
77146;SDS011;66121;52.584;9.694;2022-12-29T00:35:55;2.97;;;2.20;;
77146;SDS011;66121;52.584;9.694;2022-12-29T00:38:28;3.22;;;2.40;;
77146;SDS011;66121;52.584;9.694;2022-12-29T00:41:15;4.32;;;2.42;;
77146;SDS011;66121;52.584;9.694;2022-12-29T00:43:59;3.47;;;2.33;;
77146;SDS011;66121;52.584;9.694;2022-12-29T00:46:31;4.45;;;2.60;;
77146;SDS011;66121;52.584;9.694;2022-12-29T00:48:58;5.07;;;2.50;;
77146;SDS011;66121;52.584;9.694;2022-12-29T00:51:42;3.33;;;2.38;;
77146;SDS011;66121;52.584;9.694;2022-12-29T00:54:07;4.75;;;2.40;;
77146;SDS011;66121;52.584;9.694;2022-12-29T00:56:32;3.17;;;2.20;;
77146;SDS011;66121;52.584;9.694;2022-12-29T00:59:04;3.23;;;2.20;;
77146;SDS011;66121;52.584;9.694;2022-12-29T01:01:33;5.85;;;2.40;;
77146;SDS011;66121;52.584;9.694;2022-12-29T01:03:58;3.10;;;2.35;;
77146;SDS011;66121;52.584;9.694;2022-12-29T01:06:23;2.80;;;2.07;;
77146;SDS011;66121;52.584;9.694;2022-12-29T01:08:49;5.40;;;2.55;;
77146;SDS011;66121;52.584;9.694;2022-12-29T01:11:34;4.60;;;2.60;;
77146;SDS011;66121;52.584;9.694;2022-12-29T01:13:59;3.67;;;2.40;;
77146;SDS011;66121;52.584;9.694;2022-12-29T01:16:25;5.07;;;2.27;;
77146;SDS011;66121;52.584;9.694;2022-12-29T01:18:50;3.10;;;2.40;;
77146;SDS011;66121;52.584;9.694;2022-12-29T01:21:15;4.40;;;2.17;;
77146;SDS011;66121;52.584;9.694;2022-12-29T01:23:40;3.17;;;2.13;;
77146;SDS011;66121;52.584;9.694;2022-12-29T01:26:09;5.83;;;2.10;;
77146;SDS011;66121;52.584;9.694;2022-12-29T01:28:36;7.53;;;2.40;;
77146;SDS011;66121;52.584;9.694;2022-12-29T01:31:03;3.60;;;2.20;;
77146;SDS011;66121;52.584;9.694;2022-12-29T01:33:29;5.55;;;2.15;;
77146;SDS011;66121;52.584;9.694;2022-12-29T01:35:57;3.40;;;2.33;;
77146;SDS011;66121;52.584;9.694;2022-12-29T01:38:25;3.20;;;1.98;;
77146;SDS011;66121;52.584;9.694;2022-12-29T01:40:50;3.53;;;2.00;;
77146;SDS011;66121;52.584;9.694;2022-12-29T01:43:15;3.80;;;2.27;;
77146;SDS011;66121;52.584;9.694;2022-12-29T01:45:45;3.83;;;1.87;;
77146;SDS011;66121;52.584;9.694;2022-12-29T01:48:15;3.85;;;2.00;;
77146;SDS011;66121;52.584;9.694;2022-12-29T01:50:43;4.63;;;2.17;;
77146;SDS011;66121;52.584;9.694;2022-12-29T01:53:19;3.05;;;1.80;;
77146;SDS011;66121;52.584;9.694;2022-12-29T01:55:51;3.15;;;1.80;;
77146;SDS011;66121;52.584;9.694;2022-12-29T01:58:20;2.70;;;1.80;;
77146;SDS011;66121;52.584;9.694;2022-12-29T02:00:47;4.72;;;1.90;;
77146;SDS011;66121;52.584;9.694;2022-12-29T02:03:13;3.67;;;2.10;;
77146;SDS011;66121;52.584;9.694;2022-12-29T02:05:47;2.42;;;1.70;;
77146;SDS011;66121;52.584;9.694;2022-12-29T02:08:19;3.15;;;1.95;;
77146;SDS011;66121;52.584;9.694;2022-12-29T02:10:47;2.97;;;1.98;;
77146;SDS011;66121;52.584;9.694;2022-12-29T02:13:14;4.43;;;1.90;;
77146;SDS011;66121;52.584;9.694;2022-12-29T02:18:22;3.10;;;1.63;;
77146;SDS011;66121;52.584;9.694;2022-12-29T02:21:10;3.42;;;1.90;;
77146;SDS011;66121;52.584;9.694;2022-12-29T02:27:25;2.70;;;1.92;;
77146;SDS011;66121;52.584;9.694;2022-12-29T02:32:46;3.15;;;2.05;;
77146;SDS011;66121;52.584;9.694;2022-12-29T02:35:40;3.90;;;1.92;;
77146;SDS011;66121;52.584;9.694;2022-12-29T02:41:03;2.72;;;1.70;;
77146;SDS011;66121;52.584;9.694;2022-12-29T02:43:39;3.45;;;2.10;;
77146;SDS011;66121;52.584;9.694;2022-12-29T02:46:41;4.00;;;2.20;;
77146;SDS011;66121;52.584;9.694;2022-12-29T02:49:15;2.72;;;1.90;;
77146;SDS011;66121;52.584;9.694;2022-12-29T02:54:31;3.63;;;1.77;;
77146;SDS011;66121;52.584;9.694;2022-12-29T02:57:14;4.28;;;2.97;;
77146;SDS011;66121;52.584;9.694;2022-12-29T02:59:54;3.13;;;1.85;;
77146;SDS011;66121;52.584;9.694;2022-12-29T03:02:27;4.45;;;1.88;;
77146;SDS011;66121;52.584;9.694;2022-12-29T03:05:27;4.07;;;1.90;;
77146;SDS011;66121;52.584;9.694;2022-12-29T03:11:38;3.05;;;2.00;;
77146;SDS011;66121;52.584;9.694;2022-12-29T03:14:33;5.30;;;1.85;;
77146;SDS011;66121;52.584;9.694;2022-12-29T03:17:28;2.35;;;1.77;;
77146;SDS011;66121;52.584;9.694;2022-12-29T03:20:01;2.75;;;2.03;;
77146;SDS011;66121;52.584;9.694;2022-12-29T03:22:31;3.30;;;1.80;;
77146;SDS011;66121;52.584;9.694;2022-12-29T03:25:02;4.28;;;1.90;;
77146;SDS011;66121;52.584;9.694;2022-12-29T03:27:34;2.70;;;1.80;;
77146;SDS011;66121;52.584;9.694;2022-12-29T03:30:03;2.88;;;1.80;;
77146;SDS011;66121;52.584;9.694;2022-12-29T03:32:35;2.80;;;1.77;;
77146;SDS011;66121;52.584;9.694;2022-12-29T03:35:04;2.53;;;1.73;;
77146;SDS011;66121;52.584;9.694;2022-12-29T03:37:39;2.75;;;1.80;;
77146;SDS011;66121;52.584;9.694;2022-12-29T03:40:10;2.85;;;1.70;;
77146;SDS011;66121;52.584;9.694;2022-12-29T03:42:36;2.50;;;1.75;;
77146;SDS011;66121;52.584;9.694;2022-12-29T03:45:02;2.60;;;1.70;;
77146;SDS011;66121;52.584;9.694;2022-12-29T03:47:29;4.10;;;1.90;;
77146;SDS011;66121;52.584;9.694;2022-12-29T03:49:54;6.87;;;2.00;;
77146;SDS011;66121;52.584;9.694;2022-12-29T03:52:20;4.00;;;1.50;;
77146;SDS011;66121;52.584;9.694;2022-12-29T03:54:45;2.40;;;1.70;;
77146;SDS011;66121;52.584;9.694;2022-12-29T03:57:11;2.00;;;1.58;;
77146;SDS011;66121;52.584;9.694;2022-12-29T03:59:36;2.55;;;1.70;;
77146;SDS011;66121;52.584;9.694;2022-12-29T04:02:02;6.15;;;1.77;;
77146;SDS011;66121;52.584;9.694;2022-12-29T04:04:27;3.28;;;1.80;;
77146;SDS011;66121;52.584;9.694;2022-12-29T04:06:52;1.90;;;1.48;;
77146;SDS011;66121;52.584;9.694;2022-12-29T04:09:18;3.77;;;1.60;;
77146;SDS011;66121;52.584;9.694;2022-12-29T04:11:43;4.20;;;1.80;;
77146;SDS011;66121;52.584;9.694;2022-12-29T04:14:08;2.50;;;1.47;;
77146;SDS011;66121;52.584;9.694;2022-12-29T04:16:34;2.22;;;1.40;;
77146;SDS011;66121;52.584;9.694;2022-12-29T04:19:00;2.38;;;1.33;;
77146;SDS011;66121;52.584;9.694;2022-12-29T04:21:26;2.15;;;1.48;;
77146;SDS011;66121;52.584;9.694;2022-12-29T04:23:52;3.50;;;1.63;;
77146;SDS011;66121;52.584;9.694;2022-12-29T04:26:17;2.53;;;1.53;;
77146;SDS011;66121;52.584;9.694;2022-12-29T04:28:42;2.47;;;1.70;;
77146;SDS011;66121;52.584;9.694;2022-12-29T04:31:07;2.77;;;1.40;;
77146;SDS011;66121;52.584;9.694;2022-12-29T04:33:33;2.00;;;1.30;;
77146;SDS011;66121;52.584;9.694;2022-12-29T04:35:58;2.50;;;1.70;;
77146;SDS011;66121;52.584;9.694;2022-12-29T04:38:24;1.95;;;1.40;;
77146;SDS011;66121;52.584;9.694;2022-12-29T04:40:49;1.40;;;1.30;;
77146;SDS011;66121;52.584;9.694;2022-12-29T04:43:16;2.25;;;1.30;;
77146;SDS011;66121;52.584;9.694;2022-12-29T04:45:45;1.73;;;1.20;;
77146;SDS011;66121;52.584;9.694;2022-12-29T04:48:11;1.73;;;1.20;;
77146;SDS011;66121;52.584;9.694;2022-12-29T04:50:37;2.10;;;1.35;;
77146;SDS011;66121;52.584;9.694;2022-12-29T04:53:02;2.73;;;1.40;;
77146;SDS011;66121;52.584;9.694;2022-12-29T04:55:27;1.65;;;1.25;;
77146;SDS011;66121;52.584;9.694;2022-12-29T04:57:52;1.67;;;1.10;;
77146;SDS011;66121;52.584;9.694;2022-12-29T05:00:18;2.05;;;1.48;;
77146;SDS011;66121;52.584;9.694;2022-12-29T05:02:44;1.17;;;1.08;;
77146;SDS011;66121;52.584;9.694;2022-12-29T05:05:09;1.60;;;1.10;;
77146;SDS011;66121;52.584;9.694;2022-12-29T05:07:35;2.13;;;1.20;;
77146;SDS011;66121;52.584;9.694;2022-12-29T05:10:00;2.33;;;1.20;;
77146;SDS011;66121;52.584;9.694;2022-12-29T05:12:25;1.77;;;1.38;;
77146;SDS011;66121;52.584;9.694;2022-12-29T05:14:53;2.53;;;0.98;;
77146;SDS011;66121;52.584;9.694;2022-12-29T05:17:19;2.97;;;1.40;;
77146;SDS011;66121;52.584;9.694;2022-12-29T05:19:44;2.13;;;1.10;;
77146;SDS011;66121;52.584;9.694;2022-12-29T05:22:09;1.77;;;1.00;;
77146;SDS011;66121;52.584;9.694;2022-12-29T05:24:35;2.27;;;1.10;;
77146;SDS011;66121;52.584;9.694;2022-12-29T05:27:00;1.40;;;1.20;;
77146;SDS011;66121;52.584;9.694;2022-12-29T05:29:25;2.13;;;1.27;;
77146;SDS011;66121;52.584;9.694;2022-12-29T05:31:50;1.70;;;1.00;;
77146;SDS011;66121;52.584;9.694;2022-12-29T05:34:16;1.83;;;0.90;;
77146;SDS011;66121;52.584;9.694;2022-12-29T05:36:41;1.60;;;1.20;;
77146;SDS011;66121;52.584;9.694;2022-12-29T05:39:06;4.37;;;1.10;;
77146;SDS011;66121;52.584;9.694;2022-12-29T05:41:32;1.50;;;0.90;;
77146;SDS011;66121;52.584;9.694;2022-12-29T05:43:58;1.70;;;1.10;;
77146;SDS011;66121;52.584;9.694;2022-12-29T05:46:23;1.80;;;0.90;;
77146;SDS011;66121;52.584;9.694;2022-12-29T05:48:49;1.50;;;0.80;;
77146;SDS011;66121;52.584;9.694;2022-12-29T05:51:14;0.93;;;0.93;;
77146;SDS011;66121;52.584;9.694;2022-12-29T05:53:39;3.40;;;1.53;;
77146;SDS011;66121;52.584;9.694;2022-12-29T05:56:05;1.03;;;0.80;;
77146;SDS011;66121;52.584;9.694;2022-12-29T05:58:30;1.80;;;0.98;;
77146;SDS011;66121;52.584;9.694;2022-12-29T06:00:55;2.70;;;0.93;;
77146;SDS011;66121;52.584;9.694;2022-12-29T06:03:21;1.87;;;0.90;;
77146;SDS011;66121;52.584;9.694;2022-12-29T06:05:46;0.75;;;0.70;;
77146;SDS011;66121;52.584;9.694;2022-12-29T06:08:12;1.10;;;1.00;;
77146;SDS011;66121;52.584;9.694;2022-12-29T06:10:37;1.45;;;0.88;;
77146;SDS011;66121;52.584;9.694;2022-12-29T06:13:02;2.55;;;1.10;;
77146;SDS011;66121;52.584;9.694;2022-12-29T06:15:30;1.60;;;1.10;;
77146;SDS011;66121;52.584;9.694;2022-12-29T06:17:56;0.80;;;0.80;;
77146;SDS011;66121;52.584;9.694;2022-12-29T06:20:21;0.90;;;0.90;;
77146;SDS011;66121;52.584;9.694;2022-12-29T06:22:46;1.92;;;1.17;;
77146;SDS011;66121;52.584;9.694;2022-12-29T06:25:12;2.25;;;1.10;;
77146;SDS011;66121;52.584;9.694;2022-12-29T06:27:38;6.45;;;1.63;;
77146;SDS011;66121;52.584;9.694;2022-12-29T06:30:03;1.93;;;1.17;;
77146;SDS011;66121;52.584;9.694;2022-12-29T06:32:29;2.08;;;1.20;;
77146;SDS011;66121;52.584;9.694;2022-12-29T06:34:54;0.90;;;0.87;;
77146;SDS011;66121;52.584;9.694;2022-12-29T06:37:19;3.03;;;0.80;;
77146;SDS011;66121;52.584;9.694;2022-12-29T06:39:45;2.23;;;1.13;;
77146;SDS011;66121;52.584;9.694;2022-12-29T06:42:10;2.73;;;1.30;;
77146;SDS011;66121;52.584;9.694;2022-12-29T06:44:35;1.73;;;1.45;;
77146;SDS011;66121;52.584;9.694;2022-12-29T06:47:00;3.03;;;1.43;;
77146;SDS011;66121;52.584;9.694;2022-12-29T06:49:26;1.83;;;1.40;;
77146;SDS011;66121;52.584;9.694;2022-12-29T06:51:51;2.83;;;1.90;;
77146;SDS011;66121;52.584;9.694;2022-12-29T06:54:16;2.60;;;1.60;;
77146;SDS011;66121;52.584;9.694;2022-12-29T06:56:42;2.30;;;1.50;;
77146;SDS011;66121;52.584;9.694;2022-12-29T06:59:08;3.33;;;1.57;;
77146;SDS011;66121;52.584;9.694;2022-12-29T07:01:34;2.85;;;1.45;;
77146;SDS011;66121;52.584;9.694;2022-12-29T07:04:00;4.57;;;1.25;;
77146;SDS011;66121;52.584;9.694;2022-12-29T07:06:26;0.88;;;0.80;;
77146;SDS011;66121;52.584;9.694;2022-12-29T07:08:51;1.17;;;0.70;;
77146;SDS011;66121;52.584;9.694;2022-12-29T07:11:19;2.63;;;1.33;;
77146;SDS011;66121;52.584;9.694;2022-12-29T07:13:45;1.23;;;0.90;;
77146;SDS011;66121;52.584;9.694;2022-12-29T07:16:10;1.87;;;1.13;;
77146;SDS011;66121;52.584;9.694;2022-12-29T07:18:36;3.27;;;1.40;;
77146;SDS011;66121;52.584;9.694;2022-12-29T07:21:01;1.95;;;1.45;;
77146;SDS011;66121;52.584;9.694;2022-12-29T07:23:27;7.93;;;3.95;;
77146;SDS011;66121;52.584;9.694;2022-12-29T07:26:02;5.25;;;2.53;;
77146;SDS011;66121;52.584;9.694;2022-12-29T07:28:29;2.42;;;1.40;;
77146;SDS011;66121;52.584;9.694;2022-12-29T07:30:54;7.20;;;5.22;;
77146;SDS011;66121;52.584;9.694;2022-12-29T07:33:20;13.20;;;7.88;;
77146;SDS011;66121;52.584;9.694;2022-12-29T07:35:45;7.57;;;3.17;;
77146;SDS011;66121;52.584;9.694;2022-12-29T07:38:11;6.10;;;3.60;;
77146;SDS011;66121;52.584;9.694;2022-12-29T07:40:36;5.43;;;3.05;;
77146;SDS011;66121;52.584;9.694;2022-12-29T07:43:01;9.00;;;5.93;;
77146;SDS011;66121;52.584;9.694;2022-12-29T07:45:26;7.17;;;4.57;;
77146;SDS011;66121;52.584;9.694;2022-12-29T07:47:52;10.43;;;6.60;;
77146;SDS011;66121;52.584;9.694;2022-12-29T07:50:17;2.50;;;1.50;;
77146;SDS011;66121;52.584;9.694;2022-12-29T07:52:42;11.95;;;6.47;;
77146;SDS011;66121;52.584;9.694;2022-12-29T07:55:08;28.15;;;14.88;;
77146;SDS011;66121;52.584;9.694;2022-12-29T07:57:33;14.43;;;6.78;;
77146;SDS011;66121;52.584;9.694;2022-12-29T07:59:59;9.77;;;4.67;;
77146;SDS011;66121;52.584;9.694;2022-12-29T08:02:24;10.07;;;4.07;;
77146;SDS011;66121;52.584;9.694;2022-12-29T08:04:51;17.67;;;9.80;;
77146;SDS011;66121;52.584;9.694;2022-12-29T08:07:16;2.03;;;1.20;;
77146;SDS011;66121;52.584;9.694;2022-12-29T08:09:41;3.80;;;2.30;;
77146;SDS011;66121;52.584;9.694;2022-12-29T08:12:08;7.35;;;4.00;;
77146;SDS011;66121;52.584;9.694;2022-12-29T08:14:35;25.02;;;14.98;;
77146;SDS011;66121;52.584;9.694;2022-12-29T08:17:00;7.75;;;4.20;;
77146;SDS011;66121;52.584;9.694;2022-12-29T08:19:26;8.40;;;5.95;;
77146;SDS011;66121;52.584;9.694;2022-12-29T08:21:52;9.17;;;5.10;;
77146;SDS011;66121;52.584;9.694;2022-12-29T08:24:18;8.13;;;4.63;;
77146;SDS011;66121;52.584;9.694;2022-12-29T08:26:43;8.93;;;4.40;;
77146;SDS011;66121;52.584;9.694;2022-12-29T08:29:08;4.67;;;2.70;;
77146;SDS011;66121;52.584;9.694;2022-12-29T08:31:34;6.80;;;2.83;;
77146;SDS011;66121;52.584;9.694;2022-12-29T08:33:59;5.35;;;2.15;;
77146;SDS011;66121;52.584;9.694;2022-12-29T08:36:25;23.42;;;11.95;;
77146;SDS011;66121;52.584;9.694;2022-12-29T08:38:50;18.73;;;11.13;;
77146;SDS011;66121;52.584;9.694;2022-12-29T08:41:15;11.27;;;10.17;;
77146;SDS011;66121;52.584;9.694;2022-12-29T08:43:41;7.07;;;5.82;;
77146;SDS011;66121;52.584;9.694;2022-12-29T08:46:06;7.27;;;6.13;;
77146;SDS011;66121;52.584;9.694;2022-12-29T08:48:31;7.25;;;6.05;;
77146;SDS011;66121;52.584;9.694;2022-12-29T08:50:57;8.77;;;6.43;;
77146;SDS011;66121;52.584;9.694;2022-12-29T08:53:22;7.47;;;5.10;;
77146;SDS011;66121;52.584;9.694;2022-12-29T08:55:51;3.70;;;2.23;;
77146;SDS011;66121;52.584;9.694;2022-12-29T08:58:21;9.10;;;5.20;;
77146;SDS011;66121;52.584;9.694;2022-12-29T09:00:46;9.83;;;4.60;;
77146;SDS011;66121;52.584;9.694;2022-12-29T09:03:11;14.47;;;8.77;;
77146;SDS011;66121;52.584;9.694;2022-12-29T09:05:36;6.50;;;3.57;;
77146;SDS011;66121;52.584;9.694;2022-12-29T09:08:02;6.22;;;2.60;;
77146;SDS011;66121;52.584;9.694;2022-12-29T09:10:27;4.35;;;2.53;;
77146;SDS011;66121;52.584;9.694;2022-12-29T09:12:53;4.20;;;2.77;;
77146;SDS011;66121;52.584;9.694;2022-12-29T09:15:18;8.77;;;5.97;;
77146;SDS011;66121;52.584;9.694;2022-12-29T09:17:43;4.20;;;2.50;;
77146;SDS011;66121;52.584;9.694;2022-12-29T09:20:16;8.38;;;3.50;;
77146;SDS011;66121;52.584;9.694;2022-12-29T09:22:42;3.83;;;1.95;;
77146;SDS011;66121;52.584;9.694;2022-12-29T09:25:09;15.10;;;8.23;;
77146;SDS011;66121;52.584;9.694;2022-12-29T09:27:35;9.27;;;5.20;;
77146;SDS011;66121;52.584;9.694;2022-12-29T09:30:02;5.05;;;3.00;;
77146;SDS011;66121;52.584;9.694;2022-12-29T09:32:29;9.57;;;5.28;;
77146;SDS011;66121;52.584;9.694;2022-12-29T09:34:54;21.07;;;11.87;;
77146;SDS011;66121;52.584;9.694;2022-12-29T09:37:20;14.65;;;9.27;;
77146;SDS011;66121;52.584;9.694;2022-12-29T09:39:46;19.85;;;10.73;;
77146;SDS011;66121;52.584;9.694;2022-12-29T09:42:19;17.40;;;7.68;;
77146;SDS011;66121;52.584;9.694;2022-12-29T09:47:27;22.25;;;9.73;;
77146;SDS011;66121;52.584;9.694;2022-12-29T09:49:54;25.02;;;12.05;;
77146;SDS011;66121;52.584;9.694;2022-12-29T09:52:37;12.88;;;6.85;;
77146;SDS011;66121;52.584;9.694;2022-12-29T09:55:16;7.03;;;2.88;;
77146;SDS011;66121;52.584;9.694;2022-12-29T09:57:45;4.57;;;1.90;;
77146;SDS011;66121;52.584;9.694;2022-12-29T10:00:19;14.80;;;7.10;;
77146;SDS011;66121;52.584;9.694;2022-12-29T10:02:54;11.52;;;5.68;;
77146;SDS011;66121;52.584;9.694;2022-12-29T10:05:41;7.10;;;2.65;;
77146;SDS011;66121;52.584;9.694;2022-12-29T10:08:20;5.75;;;3.85;;
77146;SDS011;66121;52.584;9.694;2022-12-29T10:10:53;4.43;;;1.80;;
77146;SDS011;66121;52.584;9.694;2022-12-29T10:21:57;4.95;;;1.60;;
77146;SDS011;66121;52.584;9.694;2022-12-29T10:24:34;6.45;;;2.75;;
77146;SDS011;66121;52.584;9.694;2022-12-29T10:27:02;6.57;;;2.58;;
77146;SDS011;66121;52.584;9.694;2022-12-29T10:29:34;2.75;;;1.80;;
77146;SDS011;66121;52.584;9.694;2022-12-29T10:32:03;5.05;;;2.30;;
77146;SDS011;66121;52.584;9.694;2022-12-29T10:34:36;5.25;;;2.38;;
77146;SDS011;66121;52.584;9.694;2022-12-29T10:37:24;5.32;;;2.00;;
77146;SDS011;66121;52.584;9.694;2022-12-29T10:39:56;4.57;;;1.40;;
77146;SDS011;66121;52.584;9.694;2022-12-29T10:42:25;5.00;;;1.80;;
77146;SDS011;66121;52.584;9.694;2022-12-29T10:44:55;2.72;;;1.70;;
77146;SDS011;66121;52.584;9.694;2022-12-29T10:47:23;6.22;;;2.03;;
77146;SDS011;66121;52.584;9.694;2022-12-29T10:49:52;4.85;;;2.30;;
77146;SDS011;66121;52.584;9.694;2022-12-29T10:52:18;17.73;;;9.48;;
77146;SDS011;66121;52.584;9.694;2022-12-29T10:54:48;5.28;;;2.13;;
77146;SDS011;66121;52.584;9.694;2022-12-29T10:59:51;11.63;;;5.82;;
77146;SDS011;66121;52.584;9.694;2022-12-29T11:05:06;5.57;;;2.72;;
77146;SDS011;66121;52.584;9.694;2022-12-29T11:07:41;16.30;;;8.48;;
77146;SDS011;66121;52.584;9.694;2022-12-29T11:10:17;7.60;;;3.40;;
77146;SDS011;66121;52.584;9.694;2022-12-29T11:13:04;2.83;;;1.55;;
77146;SDS011;66121;52.584;9.694;2022-12-29T11:15:43;8.75;;;1.60;;
77146;SDS011;66121;52.584;9.694;2022-12-29T11:18:17;5.43;;;1.80;;
77146;SDS011;66121;52.584;9.694;2022-12-29T11:20:50;4.93;;;1.67;;
77146;SDS011;66121;52.584;9.694;2022-12-29T11:23:38;7.05;;;1.50;;
77146;SDS011;66121;52.584;9.694;2022-12-29T11:26:07;3.55;;;1.35;;
77146;SDS011;66121;52.584;9.694;2022-12-29T11:28:36;4.47;;;1.58;;
77146;SDS011;66121;52.584;9.694;2022-12-29T11:31:03;3.13;;;1.48;;
77146;SDS011;66121;52.584;9.694;2022-12-29T11:33:30;3.35;;;1.52;;
77146;SDS011;66121;52.584;9.694;2022-12-29T11:35:58;4.47;;;1.50;;
77146;SDS011;66121;52.584;9.694;2022-12-29T11:38:33;3.05;;;1.63;;
77146;SDS011;66121;52.584;9.694;2022-12-29T11:41:01;3.58;;;1.48;;
77146;SDS011;66121;52.584;9.694;2022-12-29T11:43:38;2.40;;;1.27;;
77146;SDS011;66121;52.584;9.694;2022-12-29T11:48:39;4.65;;;1.80;;
77146;SDS011;66121;52.584;9.694;2022-12-29T11:51:05;6.68;;;1.88;;
77146;SDS011;66121;52.584;9.694;2022-12-29T11:53:53;3.67;;;1.52;;
77146;SDS011;66121;52.584;9.694;2022-12-29T11:56:22;5.43;;;1.90;;
77146;SDS011;66121;52.584;9.694;2022-12-29T11:58:58;6.68;;;2.00;;
77146;SDS011;66121;52.584;9.694;2022-12-29T12:01:52;6.90;;;2.25;;
77146;SDS011;66121;52.584;9.694;2022-12-29T12:04:19;5.32;;;1.77;;
77146;SDS011;66121;52.584;9.694;2022-12-29T12:09:28;4.57;;;2.20;;
77146;SDS011;66121;52.584;9.694;2022-12-29T12:11:57;5.07;;;1.95;;
77146;SDS011;66121;52.584;9.694;2022-12-29T12:16:53;3.70;;;1.65;;
77146;SDS011;66121;52.584;9.694;2022-12-29T12:22:10;5.20;;;1.73;;
77146;SDS011;66121;52.584;9.694;2022-12-29T12:24:44;4.90;;;1.88;;
77146;SDS011;66121;52.584;9.694;2022-12-29T12:27:31;8.75;;;1.90;;
77146;SDS011;66121;52.584;9.694;2022-12-29T12:32:41;5.10;;;2.97;;
77146;SDS011;66121;52.584;9.694;2022-12-29T12:35:16;3.72;;;1.60;;
77146;SDS011;66121;52.584;9.694;2022-12-29T12:41:01;6.03;;;2.20;;
77146;SDS011;66121;52.584;9.694;2022-12-29T12:43:48;3.25;;;1.67;;
77146;SDS011;66121;52.584;9.694;2022-12-29T12:54:59;5.50;;;2.00;;
77146;SDS011;66121;52.584;9.694;2022-12-29T13:00:23;6.38;;;1.98;;
77146;SDS011;66121;52.584;9.694;2022-12-29T13:05:50;7.60;;;1.80;;
77146;SDS011;66121;52.584;9.694;2022-12-29T13:11:24;4.65;;;1.80;;
77146;SDS011;66121;52.584;9.694;2022-12-29T13:14:25;4.88;;;2.00;;
77146;SDS011;66121;52.584;9.694;2022-12-29T13:33:34;4.22;;;1.90;;
77146;SDS011;66121;52.584;9.694;2022-12-29T13:39:18;2.30;;;1.85;;
77146;SDS011;66121;52.584;9.694;2022-12-29T13:41:50;4.38;;;1.67;;
77146;SDS011;66121;52.584;9.694;2022-12-29T13:44:22;4.63;;;1.70;;
77146;SDS011;66121;52.584;9.694;2022-12-29T13:46:52;4.80;;;2.22;;
77146;SDS011;66121;52.584;9.694;2022-12-29T13:49:21;9.85;;;2.17;;
77146;SDS011;66121;52.584;9.694;2022-12-29T13:51:56;6.55;;;1.77;;
77146;SDS011;66121;52.584;9.694;2022-12-29T13:57:19;4.03;;;2.10;;
77146;SDS011;66121;52.584;9.694;2022-12-29T14:02:21;5.03;;;1.80;;
77146;SDS011;66121;52.584;9.694;2022-12-29T14:05:03;8.90;;;1.80;;
77146;SDS011;66121;52.584;9.694;2022-12-29T14:07:36;4.78;;;1.60;;
77146;SDS011;66121;52.584;9.694;2022-12-29T14:10:03;2.88;;;1.55;;
77146;SDS011;66121;52.584;9.694;2022-12-29T14:12:36;5.38;;;1.90;;
77146;SDS011;66121;52.584;9.694;2022-12-29T14:15:06;3.60;;;1.70;;
77146;SDS011;66121;52.584;9.694;2022-12-29T14:17:44;8.27;;;2.35;;
77146;SDS011;66121;52.584;9.694;2022-12-29T14:20:29;5.45;;;1.80;;
77146;SDS011;66121;52.584;9.694;2022-12-29T14:22:56;6.38;;;1.77;;
77146;SDS011;66121;52.584;9.694;2022-12-29T14:28:19;10.43;;;2.45;;
77146;SDS011;66121;52.584;9.694;2022-12-29T14:30:50;6.95;;;1.77;;
77146;SDS011;66121;52.584;9.694;2022-12-29T14:33:17;5.03;;;1.80;;
77146;SDS011;66121;52.584;9.694;2022-12-29T14:35:44;4.15;;;2.03;;
77146;SDS011;66121;52.584;9.694;2022-12-29T14:38:25;5.38;;;2.00;;
77146;SDS011;66121;52.584;9.694;2022-12-29T14:40:52;9.32;;;2.28;;
77146;SDS011;66121;52.584;9.694;2022-12-29T14:43:37;7.15;;;2.47;;
77146;SDS011;66121;52.584;9.694;2022-12-29T14:46:03;4.67;;;2.37;;
77146;SDS011;66121;52.584;9.694;2022-12-29T14:48:30;4.32;;;1.92;;
77146;SDS011;66121;52.584;9.694;2022-12-29T14:51:00;6.80;;;1.83;;
77146;SDS011;66121;52.584;9.694;2022-12-29T14:56:15;6.32;;;2.33;;
77146;SDS011;66121;52.584;9.694;2022-12-29T14:58:44;3.92;;;1.77;;
77146;SDS011;66121;52.584;9.694;2022-12-29T15:01:20;6.72;;;3.10;;
77146;SDS011;66121;52.584;9.694;2022-12-29T15:03:50;11.45;;;9.02;;
77146;SDS011;66121;52.584;9.694;2022-12-29T15:06:19;22.35;;;18.27;;
77146;SDS011;66121;52.584;9.694;2022-12-29T15:08:58;37.20;;;24.33;;
77146;SDS011;66121;52.584;9.694;2022-12-29T15:16:57;14.48;;;6.38;;
77146;SDS011;66121;52.584;9.694;2022-12-29T15:19:23;8.75;;;4.40;;
77146;SDS011;66121;52.584;9.694;2022-12-29T15:21:50;6.45;;;3.17;;
77146;SDS011;66121;52.584;9.694;2022-12-29T15:24:17;8.82;;;3.60;;
77146;SDS011;66121;52.584;9.694;2022-12-29T15:26:47;4.88;;;2.40;;
77146;SDS011;66121;52.584;9.694;2022-12-29T15:29:33;7.10;;;2.50;;
77146;SDS011;66121;52.584;9.694;2022-12-29T15:32:02;7.55;;;2.55;;
77146;SDS011;66121;52.584;9.694;2022-12-29T15:37:19;7.65;;;2.25;;
77146;SDS011;66121;52.584;9.694;2022-12-29T15:39:53;8.63;;;2.42;;
77146;SDS011;66121;52.584;9.694;2022-12-29T15:44:54;8.63;;;2.53;;
77146;SDS011;66121;52.584;9.694;2022-12-29T15:47:26;9.15;;;4.68;;
77146;SDS011;66121;52.584;9.694;2022-12-29T15:50:02;3.92;;;2.30;;
77146;SDS011;66121;52.584;9.694;2022-12-29T15:52:30;7.50;;;2.08;;
77146;SDS011;66121;52.584;9.694;2022-12-29T15:54:57;6.68;;;1.90;;
77146;SDS011;66121;52.584;9.694;2022-12-29T15:57:25;6.63;;;3.38;;
77146;SDS011;66121;52.584;9.694;2022-12-29T15:59:55;5.70;;;3.90;;
77146;SDS011;66121;52.584;9.694;2022-12-29T16:02:24;5.95;;;1.90;;
77146;SDS011;66121;52.584;9.694;2022-12-29T16:04:50;6.65;;;2.00;;
77146;SDS011;66121;52.584;9.694;2022-12-29T16:09:56;5.30;;;3.38;;
77146;SDS011;66121;52.584;9.694;2022-12-29T16:12:29;6.30;;;2.08;;
77146;SDS011;66121;52.584;9.694;2022-12-29T16:14:58;7.18;;;1.85;;
77146;SDS011;66121;52.584;9.694;2022-12-29T16:17:27;4.55;;;1.60;;
77146;SDS011;66121;52.584;9.694;2022-12-29T16:19:55;3.35;;;1.52;;
77146;SDS011;66121;52.584;9.694;2022-12-29T16:22:27;5.78;;;1.73;;
77146;SDS011;66121;52.584;9.694;2022-12-29T16:25:03;9.88;;;2.08;;
77146;SDS011;66121;52.584;9.694;2022-12-29T16:27:41;6.38;;;2.38;;
77146;SDS011;66121;52.584;9.694;2022-12-29T16:30:24;7.57;;;1.90;;
77146;SDS011;66121;52.584;9.694;2022-12-29T16:32:55;5.93;;;1.90;;
77146;SDS011;66121;52.584;9.694;2022-12-29T16:35:23;6.28;;;1.77;;
77146;SDS011;66121;52.584;9.694;2022-12-29T16:38:12;3.83;;;1.83;;
77146;SDS011;66121;52.584;9.694;2022-12-29T16:40:48;7.63;;;2.00;;
77146;SDS011;66121;52.584;9.694;2022-12-29T16:43:23;6.03;;;2.17;;
77146;SDS011;66121;52.584;9.694;2022-12-29T16:50:45;4.85;;;2.10;;
77146;SDS011;66121;52.584;9.694;2022-12-29T16:58:33;8.43;;;2.38;;
77146;SDS011;66121;52.584;9.694;2022-12-29T17:02:30;7.28;;;2.40;;
77146;SDS011;66121;52.584;9.694;2022-12-29T17:04:58;12.60;;;2.50;;
77146;SDS011;66121;52.584;9.694;2022-12-29T17:07:24;7.57;;;2.30;;